createdAt,value
2022-09-16T00:00:31.412Z,988.43
2022-09-16T00:01:31.301Z,988.53
2022-09-16T00:02:31.198Z,988.48
2022-09-16T00:03:31.234Z,988.57
2022-09-16T00:04:31.160Z,988.49
2022-09-16T00:05:31.229Z,988.53
2022-09-16T00:06:31.166Z,988.47
2022-09-16T00:07:31.139Z,988.54
2022-09-16T00:08:31.130Z,988.57
2022-09-16T00:09:31.021Z,988.58
2022-09-16T00:10:31.072Z,988.61
2022-09-16T00:11:31.112Z,988.59
2022-09-16T00:12:31.479Z,988.59
2022-09-16T00:13:31.095Z,988.57
2022-09-16T00:14:31.111Z,988.62
2022-09-16T00:15:31.068Z,988.61
2022-09-16T00:16:31.123Z,988.60
2022-09-16T00:17:31.097Z,988.61
2022-09-16T00:18:31.044Z,988.59
2022-09-16T00:19:31.070Z,988.52
2022-09-16T00:20:32.091Z,988.57
2022-09-16T00:21:31.046Z,988.54
2022-09-16T00:22:30.947Z,988.53
2022-09-16T00:23:31.008Z,988.53
2022-09-16T00:24:30.948Z,988.57
2022-09-16T00:25:31.021Z,988.60
2022-09-16T00:26:30.934Z,988.70
2022-09-16T00:27:30.936Z,988.55
2022-09-16T00:28:30.979Z,988.64
2022-09-16T00:29:30.940Z,988.64
2022-09-16T00:30:30.916Z,988.56
2022-09-16T00:31:30.991Z,988.64
2022-09-16T00:32:30.977Z,988.61
2022-09-16T00:33:31.008Z,988.69
2022-09-16T00:34:30.933Z,988.67
2022-09-16T00:35:30.940Z,988.71
2022-09-16T00:36:31.005Z,988.70
2022-09-16T00:37:30.909Z,988.67
2022-09-16T00:38:30.944Z,988.61
2022-09-16T00:39:30.962Z,988.65
2022-09-16T00:40:30.956Z,988.70
2022-09-16T00:41:30.816Z,988.64
2022-09-16T00:42:30.810Z,988.67
2022-09-16T00:43:30.777Z,988.65
2022-09-16T00:44:30.820Z,988.67
2022-09-16T00:45:30.815Z,988.65
2022-09-16T00:46:30.833Z,988.66
2022-09-16T00:47:30.773Z,988.70
2022-09-16T00:48:30.797Z,988.67
2022-09-16T00:49:30.771Z,988.71
2022-09-16T00:50:31.898Z,988.74
2022-09-16T00:51:30.777Z,988.68
2022-09-16T00:52:30.815Z,988.70
2022-09-16T00:53:30.706Z,988.66
2022-09-16T00:54:30.790Z,988.74
2022-09-16T00:55:30.807Z,988.67
2022-09-16T00:56:30.794Z,988.66
2022-09-16T00:57:30.775Z,988.68
2022-09-16T00:58:30.754Z,988.64
2022-09-16T00:59:30.803Z,988.62
2022-09-16T01:00:30.765Z,988.65
2022-09-16T01:01:30.818Z,988.61
2022-09-16T01:02:30.747Z,988.62
2022-09-16T01:03:30.688Z,988.57
2022-09-16T01:04:30.742Z,988.63
2022-09-16T01:05:30.659Z,988.55
2022-09-16T01:06:30.677Z,988.57
2022-09-16T01:07:30.641Z,988.58
2022-09-16T01:08:30.637Z,988.59
2022-09-16T01:09:30.710Z,988.56
2022-09-16T01:10:30.812Z,988.53
2022-09-16T01:11:30.702Z,988.54
2022-09-16T01:12:30.754Z,988.53
2022-09-16T01:13:30.651Z,988.55
2022-09-16T01:14:30.581Z,988.58
2022-09-16T01:15:30.639Z,988.55
2022-09-16T01:16:30.665Z,988.58
2022-09-16T01:17:30.843Z,988.55
2022-09-16T01:18:30.662Z,988.58
2022-09-16T01:19:30.617Z,988.53
2022-09-16T01:20:30.616Z,988.56
2022-09-16T01:21:30.603Z,988.59
2022-09-16T01:22:30.560Z,988.62
2022-09-16T01:23:30.485Z,988.55
2022-09-16T01:24:30.468Z,988.61
2022-09-16T01:25:30.517Z,988.58
2022-09-16T01:26:30.487Z,988.62
2022-09-16T01:27:30.512Z,988.61
2022-09-16T01:28:30.541Z,988.63
2022-09-16T01:29:30.497Z,988.62
2022-09-16T01:30:30.459Z,988.58
2022-09-16T01:31:30.499Z,988.59
2022-09-16T01:32:30.538Z,988.55
2022-09-16T01:33:30.614Z,988.52
2022-09-16T01:34:30.538Z,988.51
2022-09-16T01:35:30.495Z,988.56
2022-09-16T01:36:30.487Z,988.54
2022-09-16T01:37:30.474Z,988.51
2022-09-16T01:38:30.515Z,988.60
2022-09-16T01:39:30.536Z,988.53
2022-09-16T01:40:30.498Z,988.57
2022-09-16T01:41:30.456Z,988.48
2022-09-16T01:42:30.452Z,988.55
2022-09-16T01:43:30.447Z,988.60
2022-09-16T01:44:31.032Z,988.46
2022-09-16T01:45:30.447Z,988.54
2022-09-16T01:46:30.412Z,988.47
2022-09-16T01:47:30.335Z,988.51
2022-09-16T01:48:30.332Z,988.49
2022-09-16T01:49:30.331Z,988.47
2022-09-16T01:50:30.351Z,988.45
2022-09-16T01:51:30.312Z,988.47
2022-09-16T01:52:30.312Z,988.48
2022-09-16T01:53:30.324Z,988.44
2022-09-16T01:54:30.286Z,988.46
2022-09-16T01:55:30.481Z,988.44
2022-09-16T01:56:30.333Z,988.43
2022-09-16T01:57:30.346Z,988.44
2022-09-16T01:58:30.319Z,988.49
2022-09-16T01:59:30.302Z,988.48
2022-09-16T02:00:30.325Z,988.46
2022-09-16T02:01:30.414Z,988.48
2022-09-16T02:02:30.407Z,988.47
2022-09-16T02:03:30.268Z,988.46
2022-09-16T02:04:30.305Z,988.50
2022-09-16T02:05:30.291Z,988.48
2022-09-16T02:06:30.316Z,988.51
2022-09-16T02:07:30.160Z,988.52
2022-09-16T02:08:30.155Z,988.50
2022-09-16T02:09:30.245Z,988.42
2022-09-16T02:10:30.169Z,988.47
2022-09-16T02:11:30.162Z,988.47
2022-09-16T02:12:30.188Z,988.52
2022-09-16T02:13:30.145Z,988.57
2022-09-16T02:14:30.213Z,988.52
2022-09-16T02:15:30.234Z,988.53
2022-09-16T02:16:30.207Z,988.53
2022-09-16T02:17:30.571Z,988.52
2022-09-16T02:18:30.178Z,988.50
2022-09-16T02:19:30.215Z,988.46
2022-09-16T02:20:30.164Z,988.38
2022-09-16T02:21:30.140Z,988.40
2022-09-16T02:22:30.201Z,988.34
2022-09-16T02:23:31.072Z,988.35
2022-09-16T02:24:30.114Z,988.35
2022-09-16T02:25:30.118Z,988.39
2022-09-16T02:26:30.117Z,988.32
2022-09-16T02:27:30.134Z,988.48
2022-09-16T02:28:30.054Z,988.40
2022-09-16T02:29:30.040Z,988.45
2022-09-16T02:30:30.066Z,988.38
2022-09-16T02:31:30.207Z,988.43
2022-09-16T02:32:30.129Z,988.48
2022-09-16T02:33:30.099Z,988.42
2022-09-16T02:34:30.114Z,988.46
2022-09-16T02:35:30.069Z,988.32
2022-09-16T02:36:30.100Z,988.41
2022-09-16T02:37:30.062Z,988.45
2022-09-16T02:38:31.062Z,988.44
2022-09-16T02:39:30.025Z,988.48
2022-09-16T02:40:30.272Z,988.45
2022-09-16T02:41:30.019Z,988.41
2022-09-16T02:42:29.997Z,988.47
2022-09-16T02:43:30.046Z,988.49
2022-09-16T02:44:29.964Z,988.53
2022-09-16T02:45:29.922Z,988.52
2022-09-16T02:46:30.006Z,988.53
2022-09-16T02:47:29.955Z,988.56
2022-09-16T02:48:29.963Z,988.52
2022-09-16T02:49:30.018Z,988.51
2022-09-16T02:50:29.956Z,988.50
2022-09-16T02:51:29.961Z,988.50
2022-09-16T02:52:31.605Z,988.51
2022-09-16T02:53:29.840Z,988.55
2022-09-16T02:54:29.934Z,988.49
2022-09-16T02:55:29.993Z,988.49
2022-09-16T02:56:29.917Z,988.40
2022-09-16T02:57:29.963Z,988.43
2022-09-16T02:58:29.880Z,988.40
2022-09-16T02:59:29.965Z,988.45
2022-09-16T03:00:29.913Z,988.44
2022-09-16T03:01:29.882Z,988.46
2022-09-16T03:02:29.795Z,988.35
2022-09-16T03:03:29.841Z,988.41
2022-09-16T03:04:29.874Z,988.42
2022-09-16T03:05:29.834Z,988.43
2022-09-16T03:06:29.877Z,988.41
2022-09-16T03:07:29.810Z,988.47
2022-09-16T03:08:29.801Z,988.54
2022-09-16T03:09:29.856Z,988.51
2022-09-16T03:10:29.827Z,988.41
2022-09-16T03:11:30.583Z,988.50
2022-09-16T03:12:30.776Z,988.51
2022-09-16T03:13:30.538Z,988.49
2022-09-16T03:14:30.528Z,988.47
2022-09-16T03:15:29.781Z,988.44
2022-09-16T03:16:29.826Z,988.47
2022-09-16T03:17:29.719Z,988.51
2022-09-16T03:18:29.687Z,988.52
2022-09-16T03:19:29.773Z,988.46
2022-09-16T03:20:29.762Z,988.45
2022-09-16T03:21:29.750Z,988.47
2022-09-16T03:22:29.960Z,988.48
2022-09-16T03:23:29.750Z,988.47
2022-09-16T03:24:29.776Z,988.43
2022-09-16T03:25:29.717Z,988.45
2022-09-16T03:26:29.811Z,988.39
2022-09-16T03:27:29.686Z,988.37
2022-09-16T03:28:29.727Z,988.34
2022-09-16T03:29:30.536Z,988.40
2022-09-16T03:30:29.650Z,988.38
2022-09-16T03:31:29.687Z,988.31
2022-09-16T03:32:29.690Z,988.34
2022-09-16T03:33:29.708Z,988.29
2022-09-16T03:34:29.566Z,988.35
2022-09-16T03:35:29.560Z,988.28
2022-09-16T03:36:29.570Z,988.29
2022-09-16T03:37:29.647Z,988.33
2022-09-16T03:38:29.545Z,988.30
2022-09-16T03:39:29.589Z,988.31
2022-09-16T03:40:29.560Z,988.31
2022-09-16T03:41:29.530Z,988.24
2022-09-16T03:42:29.567Z,988.26
2022-09-16T03:43:29.595Z,988.22
2022-09-16T03:44:29.595Z,988.29
2022-09-16T03:45:29.597Z,988.27
2022-09-16T03:46:29.654Z,988.36
2022-09-16T03:47:29.597Z,988.27
2022-09-16T03:48:29.540Z,988.27
2022-09-16T03:49:29.536Z,988.34
2022-09-16T03:50:29.594Z,988.31
2022-09-16T03:51:29.510Z,988.35
2022-09-16T03:52:29.531Z,988.26
2022-09-16T03:53:30.431Z,988.29
2022-09-16T03:54:29.494Z,988.26
2022-09-16T03:55:29.534Z,988.35
2022-09-16T03:56:29.374Z,988.28
2022-09-16T03:57:29.403Z,988.27
2022-09-16T03:58:29.495Z,988.33
2022-09-16T03:59:29.394Z,988.36
2022-09-16T04:00:29.512Z,988.27
2022-09-16T04:01:29.508Z,988.27
2022-09-16T04:02:29.466Z,988.27
2022-09-16T04:03:33.145Z,988.23
2022-09-16T04:04:30.509Z,988.21
2022-09-16T04:05:29.405Z,988.25
2022-09-16T04:06:29.465Z,988.24
2022-09-16T04:07:29.415Z,988.28
2022-09-16T04:08:29.444Z,988.23
2022-09-16T04:09:29.393Z,988.30
2022-09-16T04:10:29.341Z,988.24
2022-09-16T04:11:29.347Z,988.27
2022-09-16T04:12:29.322Z,988.27
2022-09-16T04:13:29.384Z,988.25
2022-09-16T04:14:29.289Z,988.32
2022-09-16T04:15:29.281Z,988.30
2022-09-16T04:16:29.286Z,988.34
2022-09-16T04:17:29.329Z,988.28
2022-09-16T04:18:29.229Z,988.27
2022-09-16T04:19:29.327Z,988.28
2022-09-16T04:20:29.301Z,988.39
2022-09-16T04:21:29.360Z,988.36
2022-09-16T04:22:29.278Z,988.25
2022-09-16T04:23:29.736Z,988.35
2022-09-16T04:24:29.288Z,988.34
2022-09-16T04:25:29.319Z,988.36
2022-09-16T04:26:29.274Z,988.38
2022-09-16T04:27:29.348Z,988.30
2022-09-16T04:28:29.347Z,988.39
2022-09-16T04:29:29.193Z,988.39
2022-09-16T04:30:29.160Z,988.36
2022-09-16T04:31:29.175Z,988.33
2022-09-16T04:32:29.284Z,988.30
2022-09-16T04:33:29.155Z,988.31
2022-09-16T04:34:29.194Z,988.31
2022-09-16T04:35:29.136Z,988.28
2022-09-16T04:36:29.253Z,988.29
2022-09-16T04:37:29.225Z,988.27
2022-09-16T04:38:29.217Z,988.30
2022-09-16T04:39:29.191Z,988.36
2022-09-16T04:40:29.272Z,988.36
2022-09-16T04:41:29.158Z,988.35
2022-09-16T04:42:29.123Z,988.33
2022-09-16T04:43:29.127Z,988.35
2022-09-16T04:44:29.197Z,988.43
2022-09-16T04:45:29.158Z,988.41
2022-09-16T04:46:29.161Z,988.29
2022-09-16T04:47:29.133Z,988.40
2022-09-16T04:48:29.157Z,988.38
2022-09-16T04:49:29.091Z,988.33
2022-09-16T04:50:29.022Z,988.37
2022-09-16T04:51:28.996Z,988.36
2022-09-16T04:52:29.074Z,988.39
2022-09-16T04:53:28.998Z,988.30
2022-09-16T04:54:28.992Z,988.34
2022-09-16T04:55:28.993Z,988.35
2022-09-16T04:56:29.011Z,988.32
2022-09-16T04:57:28.962Z,988.35
2022-09-16T04:58:28.957Z,988.32
2022-09-16T04:59:29.007Z,988.35
2022-09-16T05:00:29.004Z,988.30
2022-09-16T05:01:29.089Z,988.27
2022-09-16T05:02:29.003Z,988.30
2022-09-16T05:03:29.046Z,988.29
2022-09-16T05:04:28.948Z,988.32
2022-09-16T05:05:29.016Z,988.37
2022-09-16T05:06:28.974Z,988.32
2022-09-16T05:07:29.006Z,988.28
2022-09-16T05:08:29.013Z,988.31
2022-09-16T05:09:29.010Z,988.22
2022-09-16T05:10:28.851Z,988.25
2022-09-16T05:11:28.852Z,988.27
2022-09-16T05:12:28.886Z,988.29
2022-09-16T05:13:28.998Z,988.42
2022-09-16T05:14:28.907Z,988.32
2022-09-16T05:15:28.843Z,988.31
2022-09-16T05:16:28.916Z,988.29
2022-09-16T05:17:49.912Z,988.41
2022-09-16T05:18:30.893Z,988.32
2022-09-16T05:19:28.868Z,988.35
2022-09-16T05:20:28.913Z,988.34
2022-09-16T05:21:28.884Z,988.34
2022-09-16T05:22:28.858Z,988.35
2022-09-16T05:23:29.156Z,988.34
2022-09-16T05:24:28.889Z,988.34
2022-09-16T05:25:28.809Z,988.29
2022-09-16T05:26:28.879Z,988.33
2022-09-16T05:27:28.825Z,988.27
2022-09-16T05:28:28.796Z,988.32
2022-09-16T05:29:28.796Z,988.37
2022-09-16T05:30:28.891Z,988.31
2022-09-16T05:31:28.679Z,988.33
2022-09-16T05:32:28.700Z,988.35
2022-09-16T05:33:28.692Z,988.41
2022-09-16T05:34:28.714Z,988.31
2022-09-16T05:35:28.703Z,988.41
2022-09-16T05:36:28.672Z,988.40
2022-09-16T05:37:28.676Z,988.42
2022-09-16T05:38:28.677Z,988.41
2022-09-16T05:39:28.779Z,988.37
2022-09-16T05:40:28.691Z,988.39
2022-09-16T05:41:28.731Z,988.39
2022-09-16T05:42:28.739Z,988.38
2022-09-16T05:43:28.673Z,988.38
2022-09-16T05:44:28.768Z,988.45
2022-09-16T05:45:32.227Z,988.37
2022-09-16T05:46:29.808Z,988.34
2022-09-16T05:47:28.676Z,988.44
2022-09-16T05:48:28.709Z,988.44
2022-09-16T05:49:28.667Z,988.45
2022-09-16T05:50:28.667Z,988.39
2022-09-16T05:51:28.669Z,988.41
2022-09-16T05:52:28.555Z,988.41
2022-09-16T05:53:28.541Z,988.46
2022-09-16T05:54:28.522Z,988.38
2022-09-16T05:55:28.666Z,988.34
2022-09-16T05:56:28.575Z,988.35
2022-09-16T05:57:28.504Z,988.37
2022-09-16T05:58:28.529Z,988.39
2022-09-16T05:59:28.612Z,988.39
2022-09-16T06:00:28.584Z,988.42
2022-09-16T06:01:28.616Z,988.42
2022-09-16T06:02:28.715Z,988.38
2022-09-16T06:03:28.545Z,988.38
2022-09-16T06:04:28.554Z,988.40
2022-09-16T06:05:28.534Z,988.34
2022-09-16T06:06:28.531Z,988.42
2022-09-16T06:07:28.560Z,988.38
2022-09-16T06:08:28.503Z,988.36
2022-09-16T06:09:28.504Z,988.41
2022-09-16T06:10:28.445Z,988.30
2022-09-16T06:11:28.408Z,988.39
2022-09-16T06:12:28.422Z,988.36
2022-09-16T06:13:28.421Z,988.30
2022-09-16T06:14:28.407Z,988.32
2022-09-16T06:15:28.386Z,988.34
2022-09-16T06:16:28.375Z,988.34
2022-09-16T06:17:28.349Z,988.36
2022-09-16T06:18:28.464Z,988.32
2022-09-16T06:19:28.433Z,988.27
2022-09-16T06:20:28.504Z,988.37
2022-09-16T06:21:28.425Z,988.36
2022-09-16T06:22:28.481Z,988.40
2022-09-16T06:23:28.452Z,988.37
2022-09-16T06:24:28.411Z,988.41
2022-09-16T06:25:28.396Z,988.35
2022-09-16T06:26:28.381Z,988.36
2022-09-16T06:27:28.405Z,988.36
2022-09-16T06:28:28.350Z,988.42
2022-09-16T06:29:28.511Z,988.44
2022-09-16T06:30:31.093Z,988.36
2022-09-16T06:31:29.275Z,988.31
2022-09-16T06:32:29.328Z,988.32
2022-09-16T06:33:28.272Z,988.28
2022-09-16T06:34:28.330Z,988.24
2022-09-16T06:35:28.208Z,988.28
2022-09-16T06:36:28.322Z,988.16
2022-09-16T06:37:28.320Z,988.24
2022-09-16T06:38:28.345Z,988.18
2022-09-16T06:39:28.393Z,988.20
2022-09-16T06:40:28.493Z,988.26
2022-09-16T06:41:28.352Z,988.20
2022-09-16T06:42:28.256Z,988.30
2022-09-16T06:43:28.345Z,988.24
2022-09-16T06:44:28.262Z,988.20
2022-09-16T06:45:28.439Z,988.31
2022-09-16T06:46:28.228Z,988.22
2022-09-16T06:47:28.155Z,988.29
2022-09-16T06:48:28.249Z,988.26
2022-09-16T06:49:28.130Z,988.31
2022-09-16T06:50:28.279Z,988.34
2022-09-16T06:51:28.207Z,988.34
2022-09-16T06:52:28.123Z,988.24
2022-09-16T06:53:28.128Z,988.19
2022-09-16T06:54:28.198Z,988.25
2022-09-16T06:55:28.180Z,988.25
2022-09-16T06:56:28.222Z,988.27
2022-09-16T06:57:28.178Z,988.28
2022-09-16T06:58:28.161Z,988.24
2022-09-16T06:59:28.155Z,988.20
2022-09-16T07:00:28.169Z,988.18
2022-09-16T07:01:28.327Z,988.21
2022-09-16T07:02:28.195Z,988.14
2022-09-16T07:03:28.128Z,988.11
2022-09-16T07:04:28.188Z,988.14
2022-09-16T07:05:28.118Z,988.20
2022-09-16T07:06:45.243Z,988.15
2022-09-16T07:07:30.073Z,988.14
2022-09-16T07:08:28.029Z,988.18
2022-09-16T07:09:28.031Z,988.17
2022-09-16T07:10:27.989Z,988.18
2022-09-16T07:11:28.070Z,988.06
2022-09-16T07:12:28.069Z,988.12
2022-09-16T07:13:27.970Z,988.15
2022-09-16T07:14:27.986Z,988.15
2022-09-16T07:15:27.930Z,988.16
2022-09-16T07:16:28.074Z,988.17
2022-09-16T07:17:28.028Z,988.16
2022-09-16T07:18:28.075Z,988.26
2022-09-16T07:19:28.364Z,988.20
2022-09-16T07:20:28.599Z,988.19
2022-09-16T07:21:27.998Z,988.21
2022-09-16T07:22:28.115Z,988.19
2022-09-16T07:23:28.045Z,988.23
2022-09-16T07:24:27.987Z,988.21
2022-09-16T07:25:30.489Z,988.31
2022-09-16T07:26:27.969Z,988.30
2022-09-16T07:27:27.992Z,988.27
2022-09-16T07:28:27.994Z,988.35
2022-09-16T07:29:29.141Z,988.22
2022-09-16T07:30:27.999Z,988.27
2022-09-16T07:31:27.902Z,988.15
2022-09-16T07:32:27.859Z,988.21
2022-09-16T07:33:27.905Z,988.24
2022-09-16T07:34:27.845Z,988.21
2022-09-16T07:35:27.920Z,988.19
2022-09-16T07:36:27.800Z,988.25
2022-09-16T07:37:27.814Z,988.25
2022-09-16T07:38:27.950Z,988.23
2022-09-16T07:39:27.928Z,988.19
2022-09-16T07:40:29.861Z,988.27
2022-09-16T07:41:28.863Z,988.23
2022-09-16T07:42:27.883Z,988.25
2022-09-16T07:43:27.894Z,988.22
2022-09-16T07:44:27.844Z,988.28
2022-09-16T07:45:27.910Z,988.30
2022-09-16T07:46:27.912Z,988.37
2022-09-16T07:47:27.830Z,988.31
2022-09-16T07:48:32.437Z,988.30
2022-09-16T07:49:29.801Z,988.29
2022-09-16T07:50:27.724Z,988.28
2022-09-16T07:51:27.778Z,988.35
2022-09-16T07:52:27.702Z,988.26
2022-09-16T07:53:29.543Z,988.26
2022-09-16T07:54:28.770Z,988.30
2022-09-16T07:55:27.699Z,988.22
2022-09-16T07:56:27.699Z,988.28
2022-09-16T07:57:27.700Z,988.21
2022-09-16T07:58:27.681Z,988.25
2022-09-16T07:59:27.664Z,988.18
2022-09-16T08:00:27.679Z,988.23
2022-09-16T08:01:27.728Z,988.21
2022-09-16T08:02:27.907Z,988.18
2022-09-16T08:03:27.681Z,988.21
2022-09-16T08:04:27.719Z,988.17
2022-09-16T08:05:27.683Z,988.15
2022-09-16T08:06:28.182Z,988.24
2022-09-16T08:07:30.258Z,988.21
2022-09-16T08:08:27.633Z,988.27
2022-09-16T08:09:38.122Z,988.18
2022-09-16T08:10:32.436Z,988.17
2022-09-16T08:11:28.734Z,988.15
2022-09-16T08:12:27.614Z,988.17
2022-09-16T08:13:27.773Z,988.24
2022-09-16T08:14:27.609Z,988.22
2022-09-16T08:15:27.698Z,988.13
2022-09-16T08:16:27.693Z,988.18
2022-09-16T08:17:30.677Z,988.20
2022-09-16T08:18:28.561Z,988.21
2022-09-16T08:19:27.496Z,988.22
2022-09-16T08:20:27.511Z,988.12
2022-09-16T08:21:27.515Z,988.19
2022-09-16T08:22:27.509Z,988.27
2022-09-16T08:23:27.484Z,988.27
2022-09-16T08:24:27.498Z,988.24
2022-09-16T08:25:27.476Z,988.33
2022-09-16T08:26:27.533Z,988.22
2022-09-16T08:27:27.440Z,988.19
2022-09-16T08:28:35.775Z,988.23
2022-09-16T08:29:28.834Z,988.26
2022-09-16T08:30:28.141Z,988.24
2022-09-16T08:31:27.467Z,988.19
2022-09-16T08:32:27.541Z,988.22
2022-09-16T08:33:27.505Z,988.24
2022-09-16T08:34:27.558Z,988.30
2022-09-16T08:35:27.560Z,988.23
2022-09-16T08:36:27.482Z,988.24
2022-09-16T08:37:27.470Z,988.29
2022-09-16T08:38:28.149Z,988.33
2022-09-16T08:39:27.438Z,988.27
2022-09-16T08:40:27.498Z,988.33
2022-09-16T08:41:27.579Z,988.36
2022-09-16T08:42:27.421Z,988.29
2022-09-16T08:43:27.338Z,988.32
2022-09-16T08:44:27.333Z,988.33
2022-09-16T08:45:27.365Z,988.32
2022-09-16T08:46:27.476Z,988.39
2022-09-16T08:47:27.345Z,988.35
2022-09-16T08:48:28.725Z,988.42
2022-09-16T08:49:27.311Z,988.42
2022-09-16T08:50:27.330Z,988.56
2022-09-16T08:51:27.289Z,988.52
2022-09-16T08:52:27.360Z,988.52
2022-09-16T08:53:27.281Z,988.55
2022-09-16T08:54:27.368Z,988.62
2022-09-16T08:55:27.397Z,988.61
2022-09-16T08:56:27.449Z,988.53
2022-09-16T08:57:27.400Z,988.54
2022-09-16T08:58:27.393Z,988.54
2022-09-16T08:59:27.312Z,988.49
2022-09-16T09:00:27.301Z,988.60
2022-09-16T09:01:27.405Z,988.49
2022-09-16T09:02:27.711Z,988.52
2022-09-16T09:03:27.297Z,988.55
2022-09-16T09:04:27.237Z,988.54
2022-09-16T09:05:27.255Z,988.63
2022-09-16T09:06:27.183Z,988.61
2022-09-16T09:07:27.197Z,988.57
2022-09-16T09:08:27.219Z,988.61
2022-09-16T09:09:27.308Z,988.54
2022-09-16T09:10:27.233Z,988.59
2022-09-16T09:11:27.236Z,988.54
2022-09-16T09:12:27.816Z,988.54
2022-09-16T09:13:28.036Z,988.64
2022-09-16T09:14:27.439Z,988.63
2022-09-16T09:15:28.387Z,988.56
2022-09-16T09:16:28.342Z,988.67
2022-09-16T09:17:27.178Z,988.62
2022-09-16T09:18:27.281Z,988.62
2022-09-16T09:19:27.171Z,988.57
2022-09-16T09:20:27.190Z,988.59
2022-09-16T09:21:27.465Z,988.63
2022-09-16T09:22:28.158Z,988.58
2022-09-16T09:23:27.199Z,988.62
2022-09-16T09:24:27.152Z,988.57
2022-09-16T09:25:27.172Z,988.61
2022-09-16T09:26:27.041Z,988.54
2022-09-16T09:27:27.142Z,988.53
2022-09-16T09:28:27.109Z,988.52
2022-09-16T09:29:27.103Z,988.55
2022-09-16T09:30:27.109Z,988.57
2022-09-16T09:31:27.078Z,988.49
2022-09-16T09:32:27.041Z,988.53
2022-09-16T09:33:45.424Z,988.65
2022-09-16T09:34:29.164Z,988.52
2022-09-16T09:35:27.002Z,988.51
2022-09-16T09:36:27.073Z,988.60
2022-09-16T09:37:27.124Z,988.54
2022-09-16T09:38:27.044Z,988.51
2022-09-16T09:39:27.086Z,988.48
2022-09-16T09:40:27.117Z,988.49
2022-09-16T09:41:27.062Z,988.42
2022-09-16T09:42:26.990Z,988.40
2022-09-16T09:43:27.049Z,988.40
2022-09-16T09:44:26.998Z,988.42
2022-09-16T09:45:27.032Z,988.49
2022-09-16T09:46:27.136Z,988.45
2022-09-16T09:47:26.977Z,988.49
2022-09-16T09:48:26.927Z,988.36
2022-09-16T09:49:26.889Z,988.40
2022-09-16T09:50:26.978Z,988.53
2022-09-16T09:51:26.938Z,988.46
2022-09-16T09:52:26.933Z,988.41
2022-09-16T09:53:26.832Z,988.48
2022-09-16T09:54:26.984Z,988.42
2022-09-16T09:55:26.915Z,988.39
2022-09-16T09:56:27.145Z,988.36
2022-09-16T11:21:58.233Z,988.13
2022-09-16T11:22:58.975Z,988.09
2022-09-16T11:23:59.014Z,988.14
2022-09-16T11:24:58.973Z,988.12
2022-09-16T11:25:58.935Z,988.10
2022-09-16T11:26:59.011Z,988.04
2022-09-16T11:27:59.897Z,988.06
2022-09-16T11:28:58.892Z,988.09
2022-09-16T11:29:58.859Z,988.10
2022-09-16T11:30:58.944Z,988.08
2022-09-16T11:31:58.840Z,988.06
2022-09-16T11:33:01.523Z,987.98
2022-09-16T11:33:59.808Z,988.02
2022-09-16T11:34:58.822Z,988.07
2022-09-16T11:35:59.787Z,988.04
2022-09-16T11:36:58.829Z,988.05
2022-09-16T11:37:58.989Z,988.03
2022-09-16T11:38:58.914Z,987.91
2022-09-16T11:39:58.922Z,987.90
2022-09-16T11:40:58.927Z,987.98
2022-09-16T11:41:58.862Z,987.90
2022-09-16T11:42:58.821Z,987.92
2022-09-16T11:43:58.851Z,988.01
2022-09-16T11:44:58.827Z,988.00
2022-09-16T11:45:58.806Z,987.94
2022-09-16T11:46:58.805Z,987.90
2022-09-16T11:47:58.870Z,987.82
2022-09-16T11:48:58.812Z,987.90
2022-09-16T11:49:58.719Z,987.98
2022-09-16T11:50:58.731Z,987.85
2022-09-16T11:51:58.779Z,987.89
2022-09-16T11:53:04.011Z,987.94
2022-09-16T11:54:01.564Z,987.88
2022-09-16T11:54:58.690Z,987.95
2022-09-16T11:55:58.758Z,987.97
2022-09-16T11:56:58.747Z,988.00
2022-09-16T11:57:58.732Z,987.96
2022-09-16T11:58:58.719Z,988.05
2022-09-16T11:59:59.661Z,987.93
2022-09-16T12:00:58.676Z,987.88
2022-09-16T12:01:58.786Z,987.94
2022-09-16T12:02:58.677Z,987.82
2022-09-16T12:03:58.826Z,987.87
2022-09-16T12:04:58.707Z,987.83
2022-09-16T12:05:58.652Z,987.83
2022-09-16T12:06:59.381Z,987.88
2022-09-16T12:07:58.929Z,987.83
2022-09-16T12:08:58.640Z,987.97
2022-09-16T12:09:58.634Z,987.91
2022-09-16T12:10:58.659Z,987.76
2022-09-16T12:11:58.550Z,987.86
2022-09-16T12:12:58.628Z,987.89
2022-09-16T12:14:05.380Z,987.85
2022-09-16T12:15:04.748Z,987.85
2022-09-16T12:16:00.588Z,987.75
2022-09-16T12:16:58.561Z,987.73
2022-09-16T12:17:58.570Z,987.72
2022-09-16T12:18:58.586Z,987.66
2022-09-16T12:19:58.571Z,987.61
2022-09-16T12:20:58.657Z,987.61
2022-09-16T12:21:58.574Z,987.56
2022-09-16T12:22:58.590Z,987.61
2022-09-16T12:23:59.323Z,987.69
2022-09-16T12:24:58.587Z,987.60
2022-09-16T12:25:58.652Z,987.56
2022-09-16T12:26:58.758Z,987.56
2022-09-16T12:27:58.492Z,987.62
2022-09-16T12:28:58.511Z,987.63
2022-09-16T12:29:58.436Z,987.58
2022-09-16T12:30:58.449Z,987.57
2022-09-16T12:31:58.609Z,987.65
2022-09-16T12:32:58.467Z,987.67
2022-09-16T12:33:58.477Z,987.69
2022-09-16T12:34:58.444Z,987.56
2022-09-16T12:35:58.399Z,987.53
2022-09-16T12:36:58.451Z,987.67
2022-09-16T12:37:58.465Z,987.63
2022-09-16T12:38:58.395Z,987.95
2022-09-16T12:39:58.519Z,987.55
2022-09-16T12:40:58.397Z,987.74
2022-09-16T12:41:58.489Z,987.70
2022-09-16T12:42:58.472Z,987.68
2022-09-16T12:44:06.365Z,987.72
2022-09-16T12:45:00.379Z,987.65
2022-09-16T12:45:58.442Z,987.68
2022-09-16T12:46:58.345Z,987.63
2022-09-16T12:47:58.258Z,987.58
2022-09-16T12:48:58.300Z,987.67
2022-09-16T12:49:58.245Z,987.69
2022-09-16T12:50:58.327Z,987.67
2022-09-16T12:51:58.239Z,987.65
2022-09-16T12:52:58.229Z,987.71
2022-09-16T12:53:58.248Z,987.65
2022-09-16T12:55:07.776Z,987.70
2022-09-16T12:56:00.234Z,987.68
2022-09-16T12:56:58.273Z,987.72
2022-09-16T12:57:58.358Z,987.81
2022-09-16T12:58:58.321Z,987.76
2022-09-16T12:59:58.277Z,987.71
2022-09-16T13:00:58.285Z,987.78
2022-09-16T13:02:00.031Z,987.76
2022-09-16T13:02:59.346Z,987.72
2022-09-16T13:03:58.385Z,987.58
2022-09-16T13:04:58.271Z,987.64
2022-09-16T13:05:58.225Z,987.60
2022-09-16T13:06:58.322Z,987.62
2022-09-16T13:07:58.164Z,987.59
2022-09-16T13:08:58.100Z,987.61
2022-09-16T13:09:58.133Z,987.74
2022-09-16T13:11:25.523Z,987.76
2022-09-16T13:13:00.155Z,987.87
2022-09-16T13:13:58.053Z,987.83
2022-09-16T13:14:58.206Z,987.97
2022-09-16T13:15:58.189Z,988.15
2022-09-16T13:16:58.241Z,987.91
2022-09-16T13:17:58.122Z,987.94
2022-09-16T13:18:58.148Z,987.90
2022-09-16T13:19:58.133Z,988.00
2022-09-16T13:20:58.171Z,987.98
2022-09-16T13:21:58.105Z,988.12
2022-09-16T13:22:58.136Z,987.98
2022-09-16T13:23:58.086Z,987.99
2022-09-16T13:24:58.102Z,987.92
2022-09-16T13:25:58.147Z,987.97
2022-09-16T13:26:58.095Z,988.08
2022-09-16T13:27:58.087Z,988.03
2022-09-16T13:28:58.187Z,987.95
2022-09-16T13:29:58.015Z,988.00
2022-09-16T13:30:57.954Z,988.01
2022-09-16T13:31:58.415Z,987.91
2022-09-16T13:32:57.930Z,987.93
2022-09-16T13:33:58.016Z,987.98
2022-09-16T13:34:57.952Z,987.91
2022-09-16T13:35:57.931Z,987.97
2022-09-16T13:36:58.059Z,987.99
2022-09-16T13:37:58.069Z,987.83
2022-09-16T13:38:58.279Z,988.00
2022-09-16T13:39:58.020Z,987.89
2022-09-16T13:40:57.974Z,987.90
2022-09-16T13:41:57.952Z,987.88
2022-09-16T13:42:58.013Z,987.85
2022-09-16T13:43:57.957Z,987.92
2022-09-16T13:44:57.997Z,987.75
2022-09-16T13:45:57.926Z,987.99
2022-09-16T13:46:57.923Z,987.88
2022-09-16T13:47:57.943Z,987.93
2022-09-16T13:48:57.933Z,987.86
2022-09-16T13:49:57.908Z,987.75
2022-09-16T13:50:57.830Z,987.82
2022-09-16T13:51:57.813Z,987.86
2022-09-16T13:52:57.785Z,987.79
2022-09-16T13:53:57.916Z,987.81